createdAt,value
2022-08-27T00:00:19.081Z,2.53
2022-08-27T00:01:29.833Z,2.80
2022-08-27T00:02:35.088Z,2.47
2022-08-27T00:03:39.373Z,3.10
2022-08-27T00:04:42.656Z,2.20
2022-08-27T00:05:46.962Z,3.00
2022-08-27T00:06:58.858Z,3.20
2022-08-27T00:08:09.935Z,2.50
2022-08-27T00:09:13.305Z,2.70
2022-08-27T00:10:19.048Z,3.57
2022-08-27T00:11:22.845Z,2.40
2022-08-27T00:12:33.817Z,2.33
2022-08-27T00:13:43.850Z,1.80
2022-08-27T00:14:49.488Z,3.67
2022-08-27T00:15:52.666Z,2.87
2022-08-27T00:16:57.588Z,2.40
2022-08-27T00:18:07.934Z,3.10
2022-08-27T00:19:12.142Z,3.00
2022-08-27T00:20:16.348Z,2.60
2022-08-27T00:21:20.657Z,2.80
2022-08-27T00:22:23.836Z,2.33
2022-08-27T00:23:34.661Z,2.60
2022-08-27T00:24:44.650Z,3.17
2022-08-27T00:25:53.450Z,3.10
2022-08-27T00:26:56.555Z,1.97
2022-08-27T00:28:00.736Z,2.77
2022-08-27T00:29:10.780Z,2.47
2022-08-27T00:30:18.172Z,2.67
2022-08-27T00:31:41.873Z,2.40
2022-08-27T00:32:47.152Z,3.20
2022-08-27T00:33:58.009Z,1.73
2022-08-27T00:35:07.847Z,2.67
2022-08-27T00:36:12.974Z,3.33
2022-08-27T00:37:16.154Z,2.90
2022-08-27T00:38:20.878Z,2.20
2022-08-27T00:39:24.159Z,2.23
2022-08-27T00:40:34.837Z,4.07
2022-08-27T00:41:38.817Z,2.30
2022-08-27T00:42:46.238Z,2.57
2022-08-27T00:43:51.109Z,2.23
2022-08-27T00:44:55.628Z,1.93
2022-08-27T00:46:11.096Z,2.13
2022-08-27T00:47:22.884Z,3.00
2022-08-27T00:48:26.880Z,3.20
2022-08-27T00:49:34.468Z,2.53
2022-08-27T00:50:39.387Z,2.13
2022-08-27T00:51:50.150Z,2.67
2022-08-27T00:53:01.969Z,2.33
2022-08-27T00:54:07.727Z,2.60
2022-08-27T00:55:13.361Z,2.10
2022-08-27T00:56:23.456Z,2.53
2022-08-27T00:57:34.938Z,2.20
2022-08-27T00:58:39.547Z,2.10
2022-08-27T00:59:44.564Z,1.77
2022-08-27T01:00:48.176Z,2.23
2022-08-27T01:02:11.691Z,2.03
2022-08-27T01:03:22.887Z,2.07
2022-08-27T01:04:26.376Z,2.83
2022-08-27T01:05:31.494Z,2.50
2022-08-27T01:06:36.745Z,2.53
2022-08-27T01:07:43.826Z,2.10
2022-08-27T01:08:57.849Z,2.27
2022-08-27T01:10:03.579Z,1.77
2022-08-27T01:11:06.804Z,1.93
2022-08-27T01:12:11.576Z,2.37
2022-08-27T01:13:19.986Z,2.53
2022-08-27T01:14:29.816Z,2.23
2022-08-27T01:15:33.927Z,2.10
2022-08-27T01:16:38.692Z,2.00
2022-08-27T01:17:44.690Z,2.40
2022-08-27T01:18:47.770Z,2.33
2022-08-27T01:19:59.854Z,2.73
2022-08-27T01:21:06.527Z,2.00
2022-08-27T01:22:20.373Z,1.97
2022-08-27T01:23:33.157Z,2.43
2022-08-27T01:24:41.155Z,2.03
2022-08-27T01:25:50.886Z,3.20
2022-08-27T01:26:55.216Z,2.80
2022-08-27T01:28:00.828Z,2.13
2022-08-27T01:29:04.114Z,2.63
2022-08-27T01:30:15.999Z,2.30
2022-08-27T01:31:25.851Z,2.77
2022-08-27T01:32:44.277Z,2.50
2022-08-27T01:33:54.936Z,2.77
2022-08-27T01:34:59.346Z,2.00
2022-08-27T01:36:08.872Z,2.00
2022-08-27T01:37:13.591Z,3.43
2022-08-27T01:38:30.052Z,2.00
2022-08-27T01:39:36.238Z,1.77
2022-08-27T01:40:47.817Z,2.40
2022-08-27T01:41:52.385Z,2.40
2022-08-27T01:43:04.825Z,2.13
2022-08-27T01:44:07.902Z,2.73
2022-08-27T01:45:13.859Z,1.87
2022-08-27T01:46:17.194Z,2.40
2022-08-27T01:47:22.060Z,2.80
2022-08-27T01:48:31.896Z,2.07
2022-08-27T01:49:36.099Z,2.13
2022-08-27T01:50:40.012Z,2.27
2022-08-27T01:51:44.301Z,1.87
2022-08-27T01:52:47.627Z,2.37
2022-08-27T01:53:58.861Z,2.13
2022-08-27T01:55:02.246Z,2.10
2022-08-27T01:56:08.096Z,2.50
2022-08-27T01:57:17.826Z,2.13
2022-08-27T01:58:29.990Z,2.30
2022-08-27T01:59:39.521Z,2.03
2022-08-27T02:00:45.752Z,2.43
2022-08-27T02:01:48.983Z,2.53
2022-08-27T02:02:53.288Z,2.20
2022-08-27T02:04:02.924Z,2.27
2022-08-27T02:05:07.437Z,2.37
2022-08-27T02:06:17.881Z,2.47
2022-08-27T02:08:42.657Z,2.57
2022-08-27T02:09:52.295Z,3.27
2022-08-27T02:10:55.814Z,2.47
2022-08-27T02:12:00.563Z,2.23
2022-08-27T02:13:07.037Z,2.47
2022-08-27T02:14:16.670Z,2.17
2022-08-27T02:15:20.892Z,1.93
2022-08-27T02:16:25.485Z,1.90
2022-08-27T02:17:28.675Z,3.80
2022-08-27T02:18:32.191Z,2.40
2022-08-27T02:19:41.622Z,2.27
2022-08-27T02:20:46.258Z,1.97
2022-08-27T02:21:49.868Z,1.93
2022-08-27T02:22:53.498Z,3.33
2022-08-27T02:23:56.064Z,2.93
2022-08-27T02:25:05.667Z,2.20
2022-08-27T02:26:13.437Z,2.37
2022-08-27T02:27:18.529Z,2.53
2022-08-27T02:28:21.111Z,2.10
2022-08-27T02:29:24.892Z,2.50
2022-08-27T02:30:34.675Z,1.97
2022-08-27T02:31:38.575Z,2.57
2022-08-27T02:32:41.367Z,2.33
2022-08-27T02:33:45.199Z,2.13
2022-08-27T02:34:47.846Z,2.53
2022-08-27T02:35:57.647Z,2.40
2022-08-27T02:37:06.633Z,1.80
2022-08-27T02:38:16.628Z,2.37
2022-08-27T02:39:19.496Z,2.33
2022-08-27T02:40:23.783Z,2.60
2022-08-27T02:41:26.862Z,2.47
2022-08-27T02:42:38.735Z,2.57
2022-08-27T02:43:41.416Z,3.00
2022-08-27T02:44:45.588Z,2.97
2022-08-27T02:45:48.938Z,2.40
2022-08-27T02:46:53.810Z,2.03
2022-08-27T02:48:02.887Z,2.67
2022-08-27T02:49:06.581Z,2.53
2022-08-27T02:50:11.063Z,2.67
2022-08-27T02:51:14.633Z,3.23
2022-08-27T02:52:17.607Z,2.20
2022-08-27T02:53:35.711Z,2.60
2022-08-27T02:54:38.305Z,2.27
2022-08-27T02:55:42.683Z,1.97
2022-08-27T02:56:45.308Z,2.50
2022-08-27T02:57:50.225Z,2.70
2022-08-27T02:58:59.689Z,3.17
2022-08-27T03:00:03.309Z,2.30
2022-08-27T03:01:06.009Z,2.20
2022-08-27T03:02:14.978Z,1.90
2022-08-27T03:03:17.808Z,2.13
2022-08-27T03:04:29.648Z,2.00
2022-08-27T03:05:38.649Z,2.63
2022-08-27T03:06:42.533Z,2.27
2022-08-27T03:08:06.642Z,2.03
2022-08-27T03:09:10.551Z,3.00
2022-08-27T03:10:14.471Z,2.27
2022-08-27T03:11:24.635Z,2.07
2022-08-27T03:12:27.496Z,2.00
2022-08-27T03:13:32.401Z,2.60
2022-08-27T03:14:34.981Z,2.27
2022-08-27T03:15:38.551Z,1.97
2022-08-27T03:16:47.660Z,2.27
2022-08-27T03:18:08.676Z,2.20
2022-08-27T03:19:13.047Z,1.70
2022-08-27T03:20:15.650Z,2.70
2022-08-27T03:21:26.700Z,2.33
2022-08-27T03:22:29.463Z,2.70
2022-08-27T03:23:34.221Z,2.87
2022-08-27T03:24:36.927Z,2.07
2022-08-27T03:25:40.501Z,2.90
2022-08-27T03:26:52.797Z,3.17
2022-08-27T03:27:57.496Z,2.63
2022-08-27T03:29:01.588Z,2.37
2022-08-27T03:30:05.885Z,2.53
2022-08-27T03:31:16.708Z,2.07
2022-08-27T03:32:20.377Z,2.40
2022-08-27T03:33:29.677Z,2.97
2022-08-27T03:34:40.659Z,2.67
2022-08-27T03:35:43.397Z,2.33
2022-08-27T03:36:48.839Z,2.27
2022-08-27T03:37:51.781Z,2.40
2022-08-27T03:38:55.684Z,2.17
2022-08-27T03:40:13.410Z,2.23
2022-08-27T03:41:18.182Z,2.57
2022-08-27T03:42:20.757Z,2.77
2022-08-27T03:43:31.678Z,3.10
2022-08-27T03:44:35.567Z,2.23
2022-08-27T03:46:00.732Z,2.50
2022-08-27T03:47:08.691Z,2.83
2022-08-27T03:48:18.729Z,2.70
2022-08-27T03:49:22.270Z,2.77
2022-08-27T03:50:25.815Z,2.20
2022-08-27T03:51:28.441Z,1.90
2022-08-27T03:52:32.005Z,2.33
2022-08-27T03:53:41.699Z,2.20
2022-08-27T03:54:45.618Z,2.80
2022-08-27T03:55:48.484Z,2.20
2022-08-27T03:56:52.034Z,2.90
2022-08-27T03:57:54.796Z,3.03
2022-08-27T03:59:04.672Z,2.40
2022-08-27T04:00:10.484Z,2.40
2022-08-27T04:01:14.243Z,2.60
2022-08-27T04:02:16.929Z,2.60
2022-08-27T04:03:20.442Z,2.00
2022-08-27T04:04:30.660Z,2.77
2022-08-27T04:05:41.688Z,2.93
2022-08-27T04:06:47.890Z,2.10
2022-08-27T04:08:13.656Z,2.57
2022-08-27T04:09:16.240Z,2.53
2022-08-27T04:10:27.708Z,2.53
2022-08-27T04:11:35.862Z,2.70
2022-08-27T04:12:39.881Z,2.97
2022-08-27T04:13:42.475Z,2.30
2022-08-27T04:14:45.961Z,3.23
2022-08-27T04:15:57.777Z,3.07
2022-08-27T04:17:02.335Z,3.67
2022-08-27T04:18:05.430Z,3.17
2022-08-27T04:19:09.423Z,2.50
2022-08-27T04:20:33.819Z,2.53
2022-08-27T04:21:42.670Z,2.63
2022-08-27T04:22:45.381Z,2.03
2022-08-27T04:23:48.957Z,3.67
2022-08-27T04:24:51.644Z,2.77
2022-08-27T04:25:55.230Z,2.70
2022-08-27T04:27:04.688Z,3.57
2022-08-27T04:28:08.259Z,3.07
2022-08-27T04:29:10.932Z,2.67
2022-08-27T04:30:15.905Z,3.07
2022-08-27T04:31:26.735Z,2.27
2022-08-27T04:32:31.170Z,1.80
2022-08-27T04:33:36.990Z,2.60
2022-08-27T04:34:40.509Z,2.30
2022-08-27T04:35:43.523Z,2.57
2022-08-27T04:36:53.669Z,2.37
2022-08-27T04:37:57.584Z,2.30
2022-08-27T04:39:01.249Z,2.03
2022-08-27T04:40:04.358Z,3.00
2022-08-27T04:41:21.480Z,2.60
2022-08-27T04:42:30.681Z,2.27
2022-08-27T04:43:34.313Z,2.87
2022-08-27T04:44:36.928Z,2.83
2022-08-27T04:45:44.602Z,2.63
2022-08-27T04:46:57.776Z,2.90
2022-08-27T04:48:00.426Z,2.53
2022-08-27T04:49:13.704Z,2.80
2022-08-27T04:50:17.962Z,3.47
2022-08-27T04:51:23.167Z,2.90
2022-08-27T04:52:32.705Z,2.97
2022-08-27T04:53:42.708Z,3.07
2022-08-27T04:54:46.314Z,3.37
2022-08-27T04:55:50.602Z,2.10
2022-08-27T04:56:54.280Z,3.43
2022-08-27T04:58:03.781Z,4.13
2022-08-27T04:59:16.698Z,2.90
2022-08-27T05:00:19.420Z,3.47
2022-08-27T05:01:24.378Z,2.67
2022-08-27T05:02:29.322Z,3.33
2022-08-27T05:03:31.977Z,3.20
2022-08-27T05:04:42.774Z,2.80
2022-08-27T05:05:45.705Z,3.33
2022-08-27T05:06:50.616Z,3.00
2022-08-27T05:08:19.668Z,2.80
2022-08-27T05:09:22.243Z,2.37
2022-08-27T05:10:35.773Z,4.40
2022-08-27T05:11:47.135Z,3.87
2022-08-27T05:12:50.129Z,3.50
2022-08-27T05:13:53.862Z,2.47
2022-08-27T05:14:57.381Z,3.00
2022-08-27T05:16:06.742Z,2.57
2022-08-27T05:17:16.935Z,2.93
2022-08-27T05:18:20.945Z,3.60
2022-08-27T05:19:24.443Z,3.27
2022-08-27T05:20:33.701Z,3.97
2022-08-27T05:21:44.731Z,3.10
2022-08-27T05:22:47.302Z,3.93
2022-08-27T05:23:51.149Z,2.87
2022-08-27T05:24:54.689Z,3.30
2022-08-27T05:25:57.815Z,3.23
2022-08-27T05:27:09.877Z,3.00
2022-08-27T05:28:16.692Z,2.90
2022-08-27T05:29:20.441Z,3.97
2022-08-27T05:30:23.112Z,2.50
2022-08-27T05:31:26.802Z,3.03
2022-08-27T05:32:35.716Z,4.07
2022-08-27T05:33:47.710Z,3.43
2022-08-27T05:34:51.239Z,4.07
2022-08-27T05:35:54.666Z,3.27
2022-08-27T05:36:58.326Z,2.97
2022-08-27T05:38:00.941Z,4.13
2022-08-27T05:39:12.738Z,3.97
2022-08-27T05:40:15.809Z,3.80
2022-08-27T05:41:20.763Z,3.50
2022-08-27T05:42:23.389Z,3.33
2022-08-27T05:43:28.101Z,4.47
2022-08-27T05:44:41.339Z,3.00
2022-08-27T05:45:47.037Z,3.03
2022-08-27T05:46:50.583Z,3.13
2022-08-27T05:47:53.177Z,3.00
2022-08-27T05:48:59.732Z,3.57
2022-08-27T05:50:10.734Z,4.10
2022-08-27T05:51:16.240Z,3.73
2022-08-27T05:52:28.201Z,3.20
2022-08-27T05:53:31.734Z,3.60
2022-08-27T05:54:34.431Z,3.77
2022-08-27T05:55:45.779Z,3.77
2022-08-27T05:56:50.572Z,2.87
2022-08-27T05:57:53.183Z,3.00
2022-08-27T05:59:14.292Z,3.10
2022-08-27T06:00:35.519Z,2.27
2022-08-27T06:01:47.698Z,2.73
2022-08-27T06:02:50.342Z,2.83
2022-08-27T06:03:55.135Z,2.37
2022-08-27T06:04:59.083Z,2.80
2022-08-27T06:06:09.734Z,2.50
2022-08-27T06:07:12.360Z,2.73
2022-08-27T06:08:35.722Z,3.50
2022-08-27T06:09:38.832Z,3.13
2022-08-27T06:10:43.163Z,2.57
2022-08-27T06:11:53.737Z,2.40
2022-08-27T06:12:57.162Z,2.20
2022-08-27T06:14:00.775Z,2.70
2022-08-27T06:15:05.137Z,2.73
2022-08-27T06:16:15.808Z,2.47
2022-08-27T06:17:19.637Z,2.27
2022-08-27T06:18:22.283Z,2.70
2022-08-27T06:19:26.111Z,2.57
2022-08-27T06:20:30.050Z,2.73
2022-08-27T06:21:39.770Z,2.63
2022-08-27T06:22:45.171Z,2.73
2022-08-27T06:23:48.318Z,2.43
2022-08-27T06:24:51.967Z,2.97
2022-08-27T06:25:54.639Z,2.53
2022-08-27T06:27:04.772Z,2.33
2022-08-27T06:28:07.340Z,2.10
2022-08-27T06:29:11.440Z,2.10
2022-08-27T06:30:17.404Z,3.17
2022-08-27T06:31:22.440Z,3.70
2022-08-27T06:32:32.788Z,2.20
2022-08-27T06:33:36.498Z,1.67
2022-08-27T06:34:39.417Z,2.17
2022-08-27T06:35:44.278Z,2.27
2022-08-27T06:36:47.065Z,2.87
2022-08-27T06:37:56.779Z,2.33
2022-08-27T06:38:59.960Z,2.97
2022-08-27T06:40:03.572Z,2.50
2022-08-27T06:41:06.833Z,2.70
2022-08-27T06:42:20.148Z,2.27
2022-08-27T06:43:29.778Z,2.13
2022-08-27T06:44:40.985Z,2.57
2022-08-27T06:45:43.555Z,3.27
2022-08-27T06:46:48.260Z,2.57
2022-08-27T06:47:50.868Z,2.73
2022-08-27T06:48:54.890Z,1.80
2022-08-27T06:50:04.777Z,2.17
2022-08-27T06:51:13.978Z,3.03
2022-08-27T06:52:23.789Z,2.20
2022-08-27T06:53:26.589Z,2.87
2022-08-27T06:54:30.139Z,2.63
2022-08-27T06:55:36.781Z,2.30
2022-08-27T06:56:40.954Z,2.33
2022-08-27T06:57:49.734Z,2.17
2022-08-27T06:58:55.332Z,2.67
2022-08-27T06:59:58.868Z,3.47
2022-08-27T07:01:02.865Z,2.83
2022-08-27T07:02:12.803Z,2.77
2022-08-27T07:03:15.382Z,2.90
2022-08-27T07:04:20.329Z,2.37
2022-08-27T07:05:22.952Z,2.87
2022-08-27T07:06:29.367Z,2.30
2022-08-27T07:07:46.787Z,2.37
2022-08-27T07:08:59.281Z,2.27
2022-08-27T07:10:02.048Z,2.37
2022-08-27T07:11:08.473Z,2.27
2022-08-27T07:12:11.223Z,3.57
2022-08-27T07:13:21.785Z,2.30
2022-08-27T07:14:24.437Z,2.80
2022-08-27T07:15:28.675Z,2.03
2022-08-27T07:16:35.664Z,3.37
2022-08-27T07:17:41.173Z,2.37
2022-08-27T07:18:50.746Z,2.23
2022-08-27T07:19:54.870Z,2.47
2022-08-27T07:20:57.501Z,2.60
2022-08-27T07:22:02.371Z,2.73
2022-08-27T07:23:08.329Z,2.03
2022-08-27T07:24:21.785Z,2.67
2022-08-27T07:25:24.430Z,2.40
2022-08-27T07:26:28.523Z,2.17
2022-08-27T07:27:31.158Z,2.10
2022-08-27T07:28:40.767Z,1.53
2022-08-27T07:29:50.821Z,2.70
2022-08-27T07:30:53.472Z,2.00
2022-08-27T07:31:57.040Z,2.63
2022-08-27T07:33:05.770Z,1.70
2022-08-27T07:34:09.493Z,2.67
2022-08-27T07:35:12.600Z,1.88
2022-08-27T07:36:16.290Z,1.98
2022-08-27T07:37:35.215Z,1.75
2022-08-27T07:38:48.409Z,1.88
2022-08-27T07:40:00.768Z,1.90
2022-08-27T07:41:05.440Z,2.40
2022-08-27T07:42:26.466Z,2.10
2022-08-27T07:43:56.087Z,2.17
2022-08-27T07:44:59.904Z,1.90
2022-08-27T07:46:04.405Z,2.33
2022-08-27T07:47:11.238Z,2.33
2022-08-27T07:48:14.280Z,2.40
2022-08-27T07:49:24.759Z,1.60
2022-08-27T07:50:34.753Z,2.10
2022-08-27T07:51:38.408Z,1.42
2022-08-27T07:52:43.885Z,1.80
2022-08-27T07:53:46.932Z,1.55
2022-08-27T07:54:58.768Z,2.03
2022-08-27T07:56:04.631Z,1.75
2022-08-27T07:57:08.600Z,1.50
2022-08-27T07:58:13.934Z,1.83
2022-08-27T07:59:19.545Z,1.50
2022-08-27T08:00:35.784Z,2.67
2022-08-27T08:01:42.844Z,1.85
2022-08-27T08:02:47.542Z,2.25
2022-08-27T08:03:50.468Z,1.65
2022-08-27T08:04:54.083Z,1.92
2022-08-27T08:06:03.794Z,1.80
2022-08-27T08:07:07.389Z,1.73
2022-08-27T08:08:18.956Z,1.67
2022-08-27T08:09:30.725Z,2.35
2022-08-27T08:10:35.607Z,1.90
2022-08-27T08:11:45.783Z,2.05
2022-08-27T08:12:48.877Z,1.63
2022-08-27T08:13:52.443Z,1.65
2022-08-27T08:14:57.999Z,1.58
2022-08-27T08:16:07.790Z,1.85
2022-08-27T08:17:16.818Z,1.92
2022-08-27T08:18:20.706Z,1.40
2022-08-27T08:19:25.070Z,1.70
2022-08-27T08:20:54.283Z,1.40
2022-08-27T08:22:00.420Z,1.17
2022-08-27T08:23:06.457Z,1.33
2022-08-27T08:24:14.397Z,1.70
2022-08-27T08:25:18.203Z,1.73
2022-08-27T08:26:20.820Z,1.65
2022-08-27T08:27:30.783Z,1.63
2022-08-27T08:28:40.797Z,1.20
2022-08-27T08:29:44.291Z,1.48
2022-08-27T08:30:47.852Z,1.63
2022-08-27T08:31:51.382Z,1.33
2022-08-27T08:32:54.331Z,1.77
2022-08-27T08:34:04.782Z,1.70
2022-08-27T08:35:14.793Z,1.90
2022-08-27T08:36:19.259Z,1.88
2022-08-27T08:37:22.024Z,2.08
2022-08-27T08:38:32.789Z,1.40
2022-08-27T08:39:38.095Z,1.73
2022-08-27T08:40:49.784Z,1.60
2022-08-27T08:41:54.322Z,1.63
2022-08-27T08:42:57.322Z,1.30
2022-08-27T08:44:05.455Z,1.23
2022-08-27T08:45:10.524Z,1.27
2022-08-27T08:46:23.839Z,1.48
2022-08-27T08:47:31.695Z,1.38
2022-08-27T08:48:41.853Z,1.38
2022-08-27T08:49:50.092Z,2.03
2022-08-27T08:50:56.894Z,1.15
2022-08-27T08:52:07.913Z,1.88
2022-08-27T08:53:12.920Z,1.38
2022-08-27T08:54:23.793Z,1.38
2022-08-27T08:55:36.781Z,1.08
2022-08-27T08:56:42.036Z,1.55
2022-08-27T08:57:49.732Z,1.33
2022-08-27T08:58:54.680Z,1.60
2022-08-27T09:00:08.774Z,2.03
2022-08-27T09:01:12.757Z,0.82
2022-08-27T09:02:16.037Z,1.48
2022-08-27T09:03:19.425Z,1.17
2022-08-27T09:04:23.542Z,1.60
2022-08-27T09:05:33.766Z,1.33
2022-08-27T09:06:40.074Z,1.88
2022-08-27T09:07:45.941Z,1.48
2022-08-27T09:08:56.449Z,1.52
2022-08-27T09:10:18.748Z,1.88
2022-08-27T09:11:27.576Z,1.67
2022-08-27T09:12:33.296Z,2.10
2022-08-27T09:13:50.812Z,1.88
2022-08-27T09:14:56.661Z,2.45
2022-08-27T09:16:02.284Z,2.40
2022-08-27T09:17:11.439Z,1.90
2022-08-27T09:18:15.553Z,1.92
2022-08-27T09:19:26.815Z,1.58
2022-08-27T09:20:29.887Z,1.38
2022-08-27T09:21:35.166Z,2.13
2022-08-27T09:22:42.658Z,2.13
2022-08-27T09:23:59.781Z,1.42
2022-08-27T09:25:08.008Z,2.03
2022-08-27T09:26:18.088Z,2.00
2022-08-27T09:27:30.776Z,1.60
2022-08-27T09:28:58.761Z,1.65
2022-08-27T09:30:08.009Z,1.30
2022-08-27T09:31:18.798Z,1.52
2022-08-27T09:32:31.778Z,2.20
2022-08-27T09:33:42.067Z,1.38
2022-08-27T09:34:59.990Z,1.80
2022-08-27T09:36:03.683Z,2.20
2022-08-27T09:37:16.784Z,1.63
2022-08-27T09:38:24.860Z,2.40
2022-08-27T09:39:30.937Z,2.08
2022-08-27T09:40:40.089Z,0.88
2022-08-27T09:41:43.779Z,2.65
2022-08-27T09:42:55.761Z,2.20
2022-08-27T09:44:05.982Z,1.70
2022-08-27T09:45:11.779Z,1.50
2022-08-27T09:46:20.448Z,1.75
2022-08-27T09:47:25.193Z,1.95
2022-08-27T09:48:35.782Z,1.88
2022-08-27T09:49:41.333Z,1.75
2022-08-27T09:50:46.827Z,1.60
2022-08-27T09:51:50.668Z,1.92
2022-08-27T09:52:55.866Z,1.50
2022-08-27T09:54:06.771Z,1.67
2022-08-27T09:55:18.774Z,1.52
2022-08-27T09:56:27.619Z,1.50
2022-08-27T09:57:35.326Z,1.73
2022-08-27T09:58:51.591Z,1.55
2022-08-27T09:59:55.311Z,2.05
2022-08-27T10:01:09.950Z,1.73
2022-08-27T10:02:17.766Z,1.75
2022-08-27T10:03:22.562Z,1.65
2022-08-27T10:04:28.172Z,1.60
2022-08-27T10:05:33.909Z,1.67
2022-08-27T10:06:43.853Z,1.80
2022-08-27T10:07:52.634Z,1.38
2022-08-27T10:09:07.379Z,1.73
2022-08-27T10:10:18.928Z,2.15
2022-08-27T10:11:30.902Z,1.85
2022-08-27T10:12:37.053Z,2.40
2022-08-27T10:13:42.668Z,1.30
2022-08-27T10:14:49.391Z,2.05
2022-08-27T10:15:58.441Z,2.30
2022-08-27T10:17:12.835Z,1.25
2022-08-27T10:18:20.983Z,1.50
2022-08-27T10:19:34.513Z,1.90
2022-08-27T10:20:49.896Z,1.77
2022-08-27T10:21:56.587Z,1.85
2022-08-27T10:23:05.547Z,1.95
2022-08-27T10:24:13.594Z,1.83
2022-08-27T10:25:21.417Z,2.30
2022-08-27T10:26:34.018Z,2.13
2022-08-27T10:27:48.830Z,2.30
2022-08-27T10:29:01.347Z,2.22
2022-08-27T10:30:08.398Z,2.13
2022-08-27T10:31:21.919Z,1.45
2022-08-27T10:32:31.497Z,2.03
2022-08-27T10:33:45.832Z,1.70
2022-08-27T10:34:54.598Z,2.15
2022-08-27T10:36:01.294Z,1.70
2022-08-27T10:37:10.501Z,1.23
2022-08-27T10:38:25.862Z,2.08
2022-08-27T10:39:38.131Z,1.50
2022-08-27T10:40:44.499Z,2.53
2022-08-27T10:41:50.157Z,1.92
2022-08-27T10:43:03.885Z,2.10
2022-08-27T10:44:26.034Z,1.73
2022-08-27T10:45:41.773Z,2.08
2022-08-27T10:46:58.030Z,2.15
2022-08-27T10:48:12.039Z,2.03
2022-08-27T10:49:21.415Z,1.92
2022-08-27T10:50:29.416Z,2.25
2022-08-27T10:51:38.217Z,2.33
2022-08-27T10:52:51.857Z,2.53
2022-08-27T10:53:58.238Z,1.92
2022-08-27T10:55:03.150Z,2.05
2022-08-27T10:56:21.876Z,2.28
2022-08-27T10:57:51.694Z,1.67
2022-08-27T10:59:05.905Z,1.55
2022-08-27T11:00:10.845Z,1.80
2022-08-27T11:01:19.098Z,1.85
2022-08-27T11:02:26.150Z,2.05
2022-08-27T11:03:32.275Z,2.17
2022-08-27T11:04:45.858Z,2.33
2022-08-27T11:05:49.833Z,2.15
2022-08-27T11:06:57.967Z,1.85
2022-08-27T11:08:03.613Z,2.78
2022-08-27T11:09:16.937Z,1.90
2022-08-27T11:10:30.276Z,1.45
2022-08-27T11:12:12.659Z,3.45
2022-08-27T11:13:07.697Z,2.08
2022-08-27T11:14:24.897Z,2.08
2022-08-27T11:15:30.723Z,2.60
2022-08-27T11:16:43.441Z,2.42
2022-08-27T11:17:52.256Z,2.22
2022-08-27T11:18:58.489Z,1.58
2022-08-27T11:20:12.882Z,2.20
2022-08-27T11:21:18.857Z,1.83
2022-08-27T11:22:26.670Z,2.85
2022-08-27T11:23:37.940Z,1.88
2022-08-27T11:24:43.617Z,2.47
2022-08-27T11:26:01.935Z,1.67
2022-08-27T11:27:06.907Z,1.90
2022-08-27T11:28:11.732Z,1.42
2022-08-27T11:29:26.417Z,2.97
2022-08-27T11:30:47.872Z,1.77
2022-08-27T11:32:01.960Z,2.00
2022-08-27T11:33:11.049Z,2.15
2022-08-27T11:34:22.050Z,1.85
2022-08-27T11:35:29.315Z,1.65
2022-08-27T11:36:56.919Z,2.33
2022-08-27T11:38:11.949Z,2.42
2022-08-27T11:39:21.408Z,2.38
2022-08-27T11:40:31.944Z,2.00
2022-08-27T11:41:47.037Z,1.88
2022-08-27T11:42:58.882Z,1.90
2022-08-27T11:44:01.710Z,1.95
2022-08-27T11:45:07.657Z,1.98
2022-08-27T11:46:10.646Z,1.73
2022-08-27T11:47:23.900Z,2.03
2022-08-27T11:48:27.749Z,2.10
2022-08-27T11:49:32.227Z,2.40
2022-08-27T11:50:34.979Z,2.92
2022-08-27T11:51:40.460Z,2.20
2022-08-27T11:53:01.869Z,1.95
2022-08-27T11:54:07.716Z,1.60
2022-08-27T11:55:13.112Z,2.33
2022-08-27T11:56:17.767Z,2.00
2022-08-27T11:57:28.641Z,2.33
2022-08-27T11:58:52.762Z,2.03
2022-08-27T11:59:57.427Z,2.35
2022-08-27T12:01:04.795Z,2.13
2022-08-27T12:02:21.629Z,2.08
2022-08-27T12:03:28.722Z,1.70
2022-08-27T12:04:42.025Z,1.10
2022-08-27T12:05:53.884Z,2.28
2022-08-27T12:07:01.751Z,3.33
2022-08-27T12:08:15.110Z,1.85
2022-08-27T12:09:27.886Z,1.73
2022-08-27T12:10:45.897Z,1.88
2022-08-27T12:11:57.089Z,1.92
2022-08-27T12:13:10.080Z,1.90
2022-08-27T12:14:25.903Z,2.22
2022-08-27T12:15:33.132Z,2.17
2022-08-27T12:16:50.022Z,1.80
2022-08-27T12:18:01.294Z,1.52
2022-08-27T12:19:09.922Z,1.80
2022-08-27T12:20:19.531Z,1.95
2022-08-27T12:21:27.169Z,1.58
2022-08-27T12:23:03.908Z,1.80
2022-08-27T12:24:12.275Z,2.67
2022-08-27T12:25:27.894Z,2.05
2022-08-27T12:26:33.537Z,1.48
2022-08-27T12:27:37.065Z,2.17
2022-08-27T12:28:39.675Z,2.13
2022-08-27T12:29:48.281Z,1.95
2022-08-27T12:30:58.917Z,2.47
2022-08-27T12:32:04.876Z,1.85
2022-08-27T12:33:21.940Z,1.90
2022-08-27T12:34:26.145Z,1.77
2022-08-27T12:35:39.910Z,1.63
2022-08-27T12:36:42.707Z,1.85
2022-08-27T12:37:47.413Z,1.48
2022-08-27T12:38:53.182Z,2.33
2022-08-27T12:39:57.755Z,1.63
2022-08-27T12:41:10.911Z,1.90
2022-08-27T12:42:15.443Z,2.10
2022-08-27T12:43:19.700Z,2.22
2022-08-27T12:44:33.962Z,2.35
2022-08-27T12:45:44.189Z,1.65
2022-08-27T12:46:48.126Z,1.67
2022-08-27T12:47:52.850Z,1.77
2022-08-27T12:48:58.094Z,2.20
2022-08-27T12:50:20.910Z,2.13
2022-08-27T12:51:25.930Z,2.05
2022-08-27T12:52:43.703Z,1.77
2022-08-27T12:53:49.476Z,2.17
2022-08-27T12:55:03.945Z,1.92
2022-08-27T12:56:21.542Z,2.05
2022-08-27T12:57:25.667Z,1.88
2022-08-27T12:58:35.504Z,1.92
2022-08-27T12:59:44.829Z,1.77
2022-08-27T13:01:12.034Z,1.70
2022-08-27T13:02:21.367Z,2.00
2022-08-27T13:03:28.540Z,2.17
2022-08-27T13:04:33.876Z,2.15
2022-08-27T13:05:41.946Z,1.80
2022-08-27T13:06:52.326Z,1.95
2022-08-27T13:07:56.974Z,2.28
2022-08-27T13:09:21.916Z,2.00
2022-08-27T13:10:31.488Z,1.52
2022-08-27T13:11:36.668Z,2.10
2022-08-27T13:12:45.930Z,1.95
2022-08-27T13:13:55.990Z,2.28
2022-08-27T13:15:07.537Z,1.88
2022-08-27T13:16:11.174Z,2.15
2022-08-27T13:17:19.091Z,1.77
2022-08-27T13:18:21.897Z,2.10
2022-08-27T13:19:33.946Z,1.67
2022-08-27T13:20:39.935Z,1.33
2022-08-27T13:21:49.031Z,2.40
2022-08-27T13:22:52.349Z,1.83
2022-08-27T13:23:57.782Z,1.88
2022-08-27T13:25:07.093Z,1.55
2022-08-27T13:26:13.320Z,1.50
2022-08-27T13:27:16.197Z,2.40
2022-08-27T13:28:21.812Z,1.70
2022-08-27T13:29:25.558Z,2.10
2022-08-27T13:30:36.579Z,1.60
2022-08-27T13:31:40.407Z,1.55
2022-08-27T13:32:43.166Z,2.00
2022-08-27T13:33:47.008Z,1.55
2022-08-27T13:34:50.632Z,1.92
2022-08-27T13:36:04.003Z,1.83
2022-08-27T13:37:08.640Z,1.58
2022-08-27T13:38:12.084Z,2.17
2022-08-27T13:39:15.737Z,2.63
2022-08-27T13:40:28.727Z,1.85
2022-08-27T13:41:40.948Z,2.03
2022-08-27T13:42:45.189Z,1.90
2022-08-27T13:43:49.706Z,2.20
2022-08-27T13:44:53.449Z,1.80
2022-08-27T13:45:57.505Z,1.52
2022-08-27T13:47:12.029Z,1.85
2022-08-27T13:48:14.934Z,1.75
2022-08-27T13:49:22.039Z,1.80
2022-08-27T13:50:26.133Z,1.73
2022-08-27T13:51:33.148Z,1.73
2022-08-27T13:53:04.991Z,1.52
2022-08-27T13:54:13.714Z,1.52
2022-08-27T13:55:18.293Z,1.52
2022-08-27T13:56:26.341Z,1.60
2022-08-27T13:57:31.351Z,1.38
2022-08-27T13:58:41.962Z,1.45
2022-08-27T13:59:45.488Z,1.45
2022-08-27T14:00:48.085Z,1.70
2022-08-27T14:01:57.835Z,1.77
2022-08-27T14:03:02.302Z,1.70
2022-08-27T14:04:13.972Z,2.00
2022-08-27T14:05:28.199Z,1.85
2022-08-27T14:06:35.749Z,1.90
2022-08-27T14:07:41.461Z,1.52
2022-08-27T14:08:44.062Z,2.33
2022-08-27T14:09:55.951Z,2.00
2022-08-27T14:11:15.635Z,1.88
2022-08-27T14:12:21.879Z,2.28
2022-08-27T14:13:40.222Z,1.80
2022-08-27T14:15:00.989Z,1.33
2022-08-27T14:16:13.554Z,1.80
2022-08-27T14:17:25.780Z,2.00
2022-08-27T14:18:57.476Z,1.45
2022-08-27T14:20:09.341Z,1.67
2022-08-27T14:21:12.068Z,1.45
2022-08-27T14:22:17.394Z,2.10
2022-08-27T14:23:26.991Z,1.73
2022-08-27T14:24:30.550Z,2.13
2022-08-27T14:25:34.990Z,1.70
2022-08-27T14:26:45.011Z,1.70
2022-08-27T14:27:54.115Z,1.75
2022-08-27T14:28:58.525Z,1.88
2022-08-27T14:30:01.203Z,1.83
2022-08-27T14:31:04.921Z,1.35
2022-08-27T14:32:13.975Z,1.58
2022-08-27T14:33:18.093Z,1.83
2022-08-27T14:34:20.997Z,1.40
2022-08-27T14:35:24.908Z,1.55
2022-08-27T14:36:37.031Z,1.90
2022-08-27T14:37:42.144Z,1.70
2022-08-27T14:38:46.801Z,1.88
2022-08-27T14:39:49.446Z,1.77
2022-08-27T14:40:54.233Z,2.05
2022-08-27T14:42:03.961Z,2.00
2022-08-27T14:43:09.017Z,1.60
2022-08-27T14:44:13.559Z,1.67
2022-08-27T14:45:16.260Z,1.55
2022-08-27T14:46:31.162Z,1.60
2022-08-27T14:47:35.438Z,1.77
2022-08-27T14:48:38.159Z,2.45
2022-08-27T14:49:43.264Z,1.48
2022-08-27T14:50:46.117Z,1.50
2022-08-27T14:51:56.987Z,1.67
2022-08-27T14:53:01.093Z,2.00
2022-08-27T14:54:04.697Z,1.65
2022-08-27T14:55:10.509Z,2.17
2022-08-27T14:56:14.435Z,1.65
2022-08-27T14:57:26.007Z,1.58
2022-08-27T14:58:29.427Z,1.15
2022-08-27T14:59:33.454Z,1.65
2022-08-27T15:00:36.049Z,1.67
2022-08-27T15:01:46.053Z,2.00
2022-08-27T15:02:49.423Z,1.90
2022-08-27T15:03:53.108Z,1.77